Time;durP1;ratioP1;P1;durP2;ratioP2;P2;SDS_P1;SDS_P2;PMS_P1;PMS_P2;Temp;Humidity;BMP_temperature;BMP_pressure;BME280_temperature;BME280_humidity;BME280_pressure;Samples;Min_cycle;Max_cycle;Signal;HPM_P1;HPM_P2
2022/05/23 00:01:21;;;;;;;;;;;18.90;99.90;;;;;;5035081;28;20012;-82
2022/05/23 00:03:47;;;;;;;;;;;18.90;99.90;;;;;;5034472;28;20324;-82
2022/05/23 00:06:17;;;;;;;;;;;18.80;99.90;;;;;;5028922;28;19922;-82
2022/05/23 00:08:43;;;;;;;;;;;18.70;99.90;;;;;;5030538;28;19913;-82
2022/05/23 00:11:09;;;;;;;;;;;18.70;99.90;;;;;;5032397;28;19914;-82
2022/05/23 00:13:34;;;;;;;;;;;18.60;99.90;;;;;;5036041;28;20011;-83
2022/05/23 00:16:00;;;;;;;;;;;18.60;99.90;;;;;;5037522;28;19920;-82
2022/05/23 00:18:25;;;;;;;;;;;18.60;99.90;;;;;;5035937;28;19960;-82
2022/05/23 00:20:51;;;;;;;;;;;18.60;99.90;;;;;;5038122;28;19957;-82
2022/05/23 00:23:16;;;;;;;;;;;18.60;99.90;;;;;;5032965;28;19925;-82
2022/05/23 00:25:42;;;;;;;;;;;18.60;99.90;;;;;;5016867;28;19967;-81
2022/05/23 00:28:07;;;;;;;;;;;18.50;99.90;;;;;;5030287;28;19987;-82
2022/05/23 00:30:33;;;;;;;;;;;18.60;99.90;;;;;;5038314;28;20365;-82
2022/05/23 00:35:51;;;;;;;;;;;18.50;99.90;;;;;;5033925;28;20304;-82
2022/05/23 00:38:16;;;;;;;;;;;18.50;99.90;;;;;;5033422;28;19967;-82
2022/05/23 00:43:13;;;;;;;;;;;18.50;99.90;;;;;;5032962;28;19913;-83
2022/05/23 00:43:43;;;;;;;;;;;18.50;99.90;;;;;;5039256;28;19948;-82
2022/05/23 00:46:10;;;;;;;;;;;18.50;99.90;;;;;;5024285;28;19924;-81
2022/05/23 00:48:35;;;;;;;;;;;18.50;99.90;;;;;;5034316;28;20085;-82
2022/05/23 00:51:03;;;;;;;;;;;18.40;99.90;;;;;;5030295;28;19913;-82
2022/05/23 00:53:28;;;;;;;;;;;18.40;99.90;;;;;;5018263;28;20289;-82
2022/05/23 00:55:56;;;;;;;;;;;18.40;99.90;;;;;;5019993;28;19921;-82
2022/05/23 00:58:24;;;;;;;;;;;18.40;99.90;;;;;;5036111;28;19921;-82
2022/05/23 01:00:50;;;;;;;;;;;18.40;99.90;;;;;;5032197;28;19959;-83
2022/05/23 01:03:16;;;;;;;;;;;18.40;99.90;;;;;;5014388;28;20007;-82
2022/05/23 01:05:42;;;;;;;;;;;18.40;99.90;;;;;;5039689;28;19915;-83
2022/05/23 01:08:08;;;;;;;;;;;18.30;99.90;;;;;;5019210;28;20052;-82
2022/05/23 01:10:36;;;;;;;;;;;18.30;99.90;;;;;;5036326;28;20023;-82
2022/05/23 01:13:01;;;;;;;;;;;18.30;99.90;;;;;;5035513;28;20282;-82
2022/05/23 01:15:28;;;;;;;;;;;18.30;99.90;;;;;;5040357;28;19919;-83
2022/05/23 01:17:54;;;;;;;;;;;18.30;99.90;;;;;;5035021;28;19921;-82
2022/05/23 01:20:20;;;;;;;;;;;18.30;99.90;;;;;;5022041;28;19917;-82
2022/05/23 01:22:52;;;;;;;;;;;18.30;99.90;;;;;;5036001;28;19940;-83
2022/05/23 01:25:17;;;;;;;;;;;18.30;99.90;;;;;;5021571;28;21347;-83
2022/05/23 01:27:43;;;;;;;;;;;18.20;99.90;;;;;;5032619;28;19914;-82
2022/05/23 01:30:08;;;;;;;;;;;18.20;99.90;;;;;;5035863;28;19913;-82
2022/05/23 01:32:38;;;;;;;;;;;18.10;99.90;;;;;;5036829;28;19920;-82
2022/05/23 01:35:07;;;;;;;;;;;18.10;99.90;;;;;;5015800;28;20432;-82
2022/05/23 01:37:33;;;;;;;;;;;18.10;99.90;;;;;;5032352;28;20020;-82
2022/05/23 01:39:58;;;;;;;;;;;18.00;99.90;;;;;;5036477;28;19956;-81
2022/05/23 01:42:23;;;;;;;;;;;18.00;99.90;;;;;;5035494;28;19913;-82
2022/05/23 01:44:49;;;;;;;;;;;18.00;99.90;;;;;;5022669;28;19941;-83
2022/05/23 01:47:16;;;;;;;;;;;18.00;99.90;;;;;;5039776;28;19917;-82
2022/05/23 01:49:42;;;;;;;;;;;18.00;99.90;;;;;;5019284;28;19948;-81
2022/05/23 01:52:08;;;;;;;;;;;18.00;99.90;;;;;;5020964;28;19921;-82
2022/05/23 01:54:34;;;;;;;;;;;18.00;99.90;;;;;;5037968;28;19921;-82
2022/05/23 01:57:00;;;;;;;;;;;18.00;99.90;;;;;;5018306;28;19943;-81
2022/05/23 02:02:10;;;;;;;;;;;18.10;99.90;;;;;;5038831;28;20010;-82
2022/05/23 02:04:36;;;;;;;;;;;18.10;99.90;;;;;;5027744;28;19917;-82
2022/05/23 02:07:02;;;;;;;;;;;18.10;99.90;;;;;;5018157;28;19920;-82
2022/05/23 02:09:27;;;;;;;;;;;18.10;99.90;;;;;;5020017;28;19936;-82
2022/05/23 02:11:53;;;;;;;;;;;18.20;99.90;;;;;;5034131;28;20369;-82
2022/05/23 02:14:19;;;;;;;;;;;18.20;99.90;;;;;;5035036;28;19921;-82
2022/05/23 02:16:44;;;;;;;;;;;18.20;99.90;;;;;;5016929;28;20031;-82
2022/05/23 02:19:10;;;;;;;;;;;18.20;99.90;;;;;;5034960;28;20369;-82
2022/05/23 02:21:35;;;;;;;;;;;18.30;99.90;;;;;;5038272;28;19939;-82
2022/05/23 02:24:03;;;;;;;;;;;18.30;99.90;;;;;;5029276;28;19917;-82
2022/05/23 02:26:32;;;;;;;;;;;18.30;99.90;;;;;;5034346;28;19913;-82
2022/05/23 02:28:58;;;;;;;;;;;18.30;99.90;;;;;;5033631;28;19917;-81
2022/05/23 02:31:24;;;;;;;;;;;18.30;99.90;;;;;;5018471;28;20012;-84
2022/05/23 02:33:49;;;;;;;;;;;18.30;99.90;;;;;;5034758;28;19917;-82
2022/05/23 02:36:17;;;;;;;;;;;18.30;99.90;;;;;;5035729;28;19924;-82
2022/05/23 02:38:43;;;;;;;;;;;18.30;99.90;;;;;;5017419;28;19913;-82
2022/05/23 02:41:08;;;;;;;;;;;18.20;99.90;;;;;;5016554;28;19958;-82
2022/05/23 02:43:34;;;;;;;;;;;18.20;99.90;;;;;;5020972;28;19917;-82
2022/05/23 02:45:59;;;;;;;;;;;18.20;1.00;;;;;;5035503;28;20000;-81
2022/05/23 02:48:24;;;;;;;;;;;18.10;1.00;;;;;;5035929;28;19963;-83
2022/05/23 02:50:50;;;;;;;;;;;18.00;1.00;;;;;;5039542;28;19914;-82
2022/05/23 02:53:15;;;;;;;;;;;18.00;1.00;;;;;;5036697;28;19920;-82
2022/05/23 02:55:41;;;;;;;;;;;18.00;1.00;;;;;;5020475;28;19956;-82
2022/05/23 02:58:10;;;;;;;;;;;18.00;1.00;;;;;;5031975;28;20324;-82
2022/05/23 03:00:36;;;;;;;;;;;17.90;1.00;;;;;;5036180;28;19913;-82
2022/05/23 03:03:01;;;;;;;;;;;17.90;1.00;;;;;;5035181;28;20580;-82
2022/05/23 03:05:27;;;;;;;;;;;17.90;1.00;;;;;;5038090;28;19916;-82
2022/05/23 03:07:53;;;;;;;;;;;17.90;1.00;;;;;;5037534;28;19920;-82
2022/05/23 03:10:18;;;;;;;;;;;17.90;1.00;;;;;;5036499;28;19914;-82
2022/05/23 03:12:45;;;;;;;;;;;18.00;1.00;;;;;;5033779;28;19913;-82
2022/05/23 03:15:11;;;;;;;;;;;18.00;1.00;;;;;;5034261;28;19920;-82
2022/05/23 03:17:37;;;;;;;;;;;18.00;1.00;;;;;;5019645;28;19995;-83
2022/05/23 03:20:03;;;;;;;;;;;17.90;1.00;;;;;;5018050;28;19972;-82
2022/05/23 03:27:56;;;;;;;;;;;17.80;1.00;;;;;;5034336;28;19920;-82
2022/05/23 03:30:22;;;;;;;;;;;17.70;1.00;;;;;;5031856;28;19921;-82
2022/05/23 03:32:47;;;;;;;;;;;17.70;1.00;;;;;;5035881;28;19913;-82
2022/05/23 03:35:13;;;;;;;;;;;17.70;1.00;;;;;;5033653;28;20000;-83
2022/05/23 03:37:38;;;;;;;;;;;17.70;1.00;;;;;;5032971;28;19925;-82
2022/05/23 03:40:05;;;;;;;;;;;17.60;1.00;;;;;;5019527;28;20401;-81
2022/05/23 03:42:31;;;;;;;;;;;17.60;1.00;;;;;;5017453;28;20399;-82
2022/05/23 03:44:56;;;;;;;;;;;17.60;1.00;;;;;;5033758;28;20012;-82
2022/05/23 03:47:22;;;;;;;;;;;17.50;1.00;;;;;;5015345;28;19913;-82
2022/05/23 03:49:47;;;;;;;;;;;17.50;1.00;;;;;;5025419;28;19963;-82
2022/05/23 03:52:13;;;;;;;;;;;17.40;1.00;;;;;;5028745;28;19975;-82
2022/05/23 03:54:38;;;;;;;;;;;17.40;1.00;;;;;;5046916;28;19913;-81
2022/05/23 03:57:04;;;;;;;;;;;17.40;1.00;;;;;;5019120;28;19917;-82
2022/05/23 03:59:30;;;;;;;;;;;17.30;1.00;;;;;;5019842;28;19974;-82
2022/05/23 04:01:57;;;;;;;;;;;17.30;22.50;;;;;;5036106;28;19947;-82
2022/05/23 04:04:24;;;;;;;;;;;17.30;12.80;;;;;;5008206;28;19920;-82
2022/05/23 04:06:52;;;;;;;;;;;17.30;45.00;;;;;;5016076;28;19924;-82
2022/05/23 04:09:17;;;;;;;;;;;17.30;10.90;;;;;;5035329;28;19920;-82
2022/05/23 04:11:43;;;;;;;;;;;17.30;1.00;;;;;;5021135;28;19913;-82
2022/05/23 04:14:08;;;;;;;;;;;17.30;1.00;;;;;;5027337;28;19949;-82
2022/05/23 04:16:34;;;;;;;;;;;17.30;1.00;;;;;;5021135;28;19921;-82
2022/05/23 04:19:02;;;;;;;;;;;17.30;1.00;;;;;;5011930;28;19921;-82
2022/05/23 04:21:27;;;;;;;;;;;17.40;1.00;;;;;;5034750;28;19918;-82
2022/05/23 04:23:53;;;;;;;;;;;17.30;1.00;;;;;;5028795;28;19952;-82
2022/05/23 04:26:18;;;;;;;;;;;17.30;1.00;;;;;;5015733;28;20390;-82
2022/05/23 04:28:43;;;;;;;;;;;17.40;1.00;;;;;;5016771;28;19953;-82
2022/05/23 04:31:09;;;;;;;;;;;17.40;1.00;;;;;;5030739;28;19923;-82
2022/05/23 04:36:19;;;;;;;;;;;17.40;1.00;;;;;;5034008;28;19968;-82
2022/05/23 04:38:45;;;;;;;;;;;17.30;1.00;;;;;;5017217;28;19913;-82
2022/05/23 04:41:11;;;;;;;;;;;17.40;1.00;;;;;;5016339;28;19913;-82
2022/05/23 04:43:36;;;;;;;;;;;17.40;1.00;;;;;;5032566;28;20380;-82
2022/05/23 04:46:02;;;;;;;;;;;17.40;1.00;;;;;;5012899;28;20018;-84
2022/05/23 04:51:12;;;;;;;;;;;17.60;1.00;;;;;;5029128;28;20336;-82
2022/05/23 04:53:38;;;;;;;;;;;17.60;99.90;;;;;;5030697;28;19921;-82
2022/05/23 04:56:03;;;;;;;;;;;17.80;99.90;;;;;;5034157;28;19971;-82
2022/05/23 04:58:29;;;;;;;;;;;17.80;99.90;;;;;;5031045;28;19924;-82
2022/05/23 05:00:54;;;;;;;;;;;17.90;99.90;;;;;;5012719;28;19960;-82
2022/05/23 05:03:20;;;;;;;;;;;18.00;99.90;;;;;;5032888;28;20389;-82
2022/05/23 05:05:46;;;;;;;;;;;18.00;99.90;;;;;;5022262;28;19921;-82
2022/05/23 05:08:12;;;;;;;;;;;18.10;99.90;;;;;;5030993;28;20281;-81
2022/05/23 05:10:37;;;;;;;;;;;18.20;99.90;;;;;;5028679;28;19921;-82
2022/05/23 05:13:03;;;;;;;;;;;18.20;99.90;;;;;;5031240;28;19921;-82
2022/05/23 05:15:29;;;;;;;;;;;18.30;99.90;;;;;;5034056;28;19921;-83
2022/05/23 05:17:54;;;;;;;;;;;18.40;99.90;;;;;;5044187;28;19964;-84
2022/05/23 05:20:20;;;;;;;;;;;18.60;99.90;;;;;;5024330;28;19940;-84
2022/05/23 05:22:46;;;;;;;;;;;18.70;99.90;;;;;;5031808;28;19935;-84
2022/05/23 05:25:12;;;;;;;;;;;18.80;99.90;;;;;;5037972;28;19932;-83
2022/05/23 05:27:38;;;;;;;;;;;18.80;99.90;;;;;;5035442;28;19924;-83
2022/05/23 05:30:04;;;;;;;;;;;18.80;99.90;;;;;;5020349;28;19913;-84
2022/05/23 05:32:43;;;;;;;;;;;18.70;99.90;;;;;;5021524;28;20704;-84
2022/05/23 05:35:20;;;;;;;;;;;18.70;99.90;;;;;;5037479;28;19913;-80
2022/05/23 05:37:50;;;;;;;;;;;18.80;99.90;;;;;;5033716;28;19917;-81
2022/05/23 05:40:18;;;;;;;;;;;18.80;99.90;;;;;;5016283;28;19968;-80
2022/05/23 05:42:46;;;;;;;;;;;18.90;99.90;;;;;;5037667;28;20036;-80
2022/05/23 05:45:17;;;;;;;;;;;18.90;99.90;;;;;;5034195;28;19959;-80
2022/05/23 05:47:44;;;;;;;;;;;19.00;99.90;;;;;;5034787;28;20011;-80
2022/05/23 05:50:14;;;;;;;;;;;19.10;99.90;;;;;;5017137;28;19925;-81
2022/05/23 05:52:40;;;;;;;;;;;19.00;99.90;;;;;;5014798;28;19914;-81
2022/05/23 05:55:07;;;;;;;;;;;19.00;99.90;;;;;;5017817;28;19920;-81
2022/05/23 05:57:33;;;;;;;;;;;19.10;99.90;;;;;;5033032;28;19917;-81
2022/05/23 05:59:58;;;;;;;;;;;19.30;99.90;;;;;;5018684;28;19920;-80
2022/05/23 06:02:23;;;;;;;;;;;19.40;99.90;;;;;;5032095;28;19921;-81
2022/05/23 06:04:49;;;;;;;;;;;19.60;99.90;;;;;;5030851;28;19939;-80
2022/05/23 06:12:47;;;;;;;;;;;20.10;99.90;;;;;;5039958;28;19919;-80
2022/05/23 06:15:13;;;;;;;;;;;20.30;99.90;;;;;;5039267;28;20015;-81
2022/05/23 06:17:39;;;;;;;;;;;20.40;99.90;;;;;;5029882;28;19952;-82
2022/05/23 06:20:05;;;;;;;;;;;20.40;99.90;;;;;;5030102;28;19920;-81
2022/05/23 06:22:30;;;;;;;;;;;20.60;99.90;;;;;;5034255;28;19921;-80
2022/05/23 06:24:56;;;;;;;;;;;21.00;99.90;;;;;;5013796;28;20297;-81
2022/05/23 06:27:24;;;;;;;;;;;21.40;99.90;;;;;;5038609;28;19984;-81
2022/05/23 06:29:49;;;;;;;;;;;21.80;99.90;;;;;;5034734;28;19924;-81
2022/05/23 06:32:16;;;;;;;;;;;22.00;99.90;;;;;;5038784;28;20369;-81
2022/05/23 06:34:42;;;;;;;;;;;22.20;99.90;;;;;;5036138;28;20312;-81
2022/05/23 06:37:07;;;;;;;;;;;22.30;99.90;;;;;;5037349;28;19917;-81
2022/05/23 06:39:33;;;;;;;;;;;21.90;99.90;;;;;;5018711;28;19917;-81
2022/05/23 06:41:58;;;;;;;;;;;21.70;99.90;;;;;;5036753;28;19913;-81
2022/05/23 06:44:24;;;;;;;;;;;21.70;99.90;;;;;;5036799;28;19939;-81
2022/05/23 06:46:50;;;;;;;;;;;21.40;99.90;;;;;;5029983;28;19979;-81
2022/05/23 06:49:15;;;;;;;;;;;21.30;99.90;;;;;;5031000;28;20551;-81
2022/05/23 06:51:41;;;;;;;;;;;21.40;99.90;;;;;;5036595;28;19955;-81
2022/05/23 06:54:06;;;;;;;;;;;21.30;99.90;;;;;;5020564;28;19967;-81
2022/05/23 06:56:32;;;;;;;;;;;21.30;99.90;;;;;;5033636;28;19966;-81
2022/05/23 06:58:58;;;;;;;;;;;21.20;99.90;;;;;;5042105;28;19921;-81
2022/05/23 07:01:23;;;;;;;;;;;21.20;99.90;;;;;;5023758;28;19982;-81
2022/05/23 07:03:49;;;;;;;;;;;21.10;99.90;;;;;;5038601;28;19921;-81
2022/05/23 07:14:27;;;;;;;;;;;21.00;99.90;;;;;;5032431;28;20474;-81
2022/05/23 07:16:54;;;;;;;;;;;21.20;99.90;;;;;;5032416;28;20051;-81
2022/05/23 07:19:19;;;;;;;;;;;21.80;99.90;;;;;;5038706;28;19917;-80
2022/05/23 07:21:45;;;;;;;;;;;22.30;99.90;;;;;;5034120;28;19920;-81
2022/05/23 07:24:11;;;;;;;;;;;24.50;99.90;;;;;;5018611;28;20393;-81
2022/05/23 07:26:37;;;;;;;;;;;27.50;99.90;;;;;;5025377;28;19940;-81
2022/05/23 07:29:02;;;;;;;;;;;29.30;99.90;;;;;;5035188;28;19973;-81
2022/05/23 07:31:29;;;;;;;;;;;31.40;99.90;;;;;;5030053;28;19914;-82
2022/05/23 07:33:54;;;;;;;;;;;32.70;99.90;;;;;;5036224;28;20362;-82
2022/05/23 07:36:20;;;;;;;;;;;33.90;99.90;;;;;;5033823;28;20012;-79
2022/05/23 07:38:46;;;;;;;;;;;35.30;99.90;;;;;;5028158;28;19928;-79
2022/05/23 07:41:12;;;;;;;;;;;33.40;99.90;;;;;;5035126;28;19913;-79
2022/05/23 07:43:39;;;;;;;;;;;30.70;99.90;;;;;;5014867;28;19978;-78
2022/05/23 07:46:09;;;;;;;;;;;29.30;99.90;;;;;;5034832;28;19952;-80
2022/05/23 07:48:39;;;;;;;;;;;28.20;99.90;;;;;;5009443;28;19913;-81
2022/05/23 07:51:04;;;;;;;;;;;27.80;99.90;;;;;;5034579;28;19932;-81
2022/05/23 08:01:43;;;;;;;;;;;25.30;99.90;;;;;;5033921;28;19919;-81
2022/05/23 08:04:09;;;;;;;;;;;25.10;99.90;;;;;;5029144;28;20019;-80
2022/05/23 08:06:34;;;;;;;;;;;25.10;99.90;;;;;;5031987;28;20469;-81
2022/05/23 08:09:00;;;;;;;;;;;25.00;99.90;;;;;;5010875;28;19918;-81
2022/05/23 08:11:25;;;;;;;;;;;24.90;99.90;;;;;;5011618;28;20350;-81
2022/05/23 08:13:53;;;;;;;;;;;24.90;99.90;;;;;;5009716;28;19953;-81
2022/05/23 08:16:19;;;;;;;;;;;24.40;99.90;;;;;;5029126;28;19925;-81
2022/05/23 08:18:44;;;;;;;;;;;24.40;99.90;;;;;;5007728;28;20291;-81
2022/05/23 08:21:10;;;;;;;;;;;24.50;99.90;;;;;;5013440;28;19928;-81
2022/05/23 08:23:36;;;;;;;;;;;24.50;99.90;;;;;;5014351;28;19935;-81
2022/05/23 08:26:02;;;;;;;;;;;24.50;99.90;;;;;;5022921;28;19919;-82
2022/05/23 08:28:28;;;;;;;;;;;24.40;99.90;;;;;;5032911;28;20076;-82
2022/05/23 08:30:54;;;;;;;;;;;24.40;99.90;;;;;;5029072;28;20112;-81
2022/05/23 08:33:19;;;;;;;;;;;24.50;99.90;;;;;;5028310;28;19917;-81
2022/05/23 08:35:45;;;;;;;;;;;24.60;99.90;;;;;;5028351;28;19914;-81
2022/05/23 08:38:10;;;;;;;;;;;24.90;99.90;;;;;;5017503;28;19913;-81
2022/05/23 08:40:42;;;;;;;;;;;24.40;99.90;;;;;;5012649;28;19921;-82
2022/05/23 08:43:07;;;;;;;;;;;24.30;99.90;;;;;;5026551;28;20013;-80
2022/05/23 08:45:40;;;;;;;;;;;24.00;99.90;;;;;;5011399;28;19955;-80
2022/05/23 08:48:44;;;;;;;;;;;24.00;99.90;;;;;;5005279;28;19917;-81
2022/05/23 08:51:14;;;;;;;;;;;23.70;99.90;;;;;;4956949;28;19945;-81
2022/05/23 08:53:48;;;;;;;;;;;23.40;99.90;;;;;;4962854;28;19918;-81
2022/05/23 08:56:23;;;;;;;;;;;23.40;99.90;;;;;;4983160;28;19917;-81
2022/05/23 08:58:52;;;;;;;;;;;23.50;99.90;;;;;;5025406;28;19956;-81
2022/05/23 09:01:19;;;;;;;;;;;23.70;99.90;;;;;;5031052;28;19913;-80
2022/05/23 09:03:52;;;;;;;;;;;23.50;99.90;;;;;;5024485;28;19913;-81
2022/05/23 09:06:32;;;;;;;;;;;23.40;99.90;;;;;;5029489;28;19914;-80
2022/05/23 09:08:58;;;;;;;;;;;23.20;99.90;;;;;;5007201;28;19920;-81
2022/05/23 09:11:30;;;;;;;;;;;23.20;99.90;;;;;;5010656;28;20047;-81
2022/05/23 09:13:56;;;;;;;;;;;23.20;99.90;;;;;;5010443;28;20055;-81
2022/05/23 09:16:24;;;;;;;;;;;23.20;99.90;;;;;;5016629;28;19957;-81
2022/05/23 09:19:02;;;;;;;;;;;23.20;99.90;;;;;;5032653;28;20004;-80
2022/05/23 09:22:12;;;;;;;;;;;23.40;99.90;;;;;;5025601;28;20019;-81
2022/05/23 09:24:14;;;;;;;;;;;24.20;99.90;;;;;;5022736;28;19924;-81
2022/05/23 09:26:40;;;;;;;;;;;25.40;99.90;;;;;;5028067;28;20346;-81
2022/05/23 09:29:09;;;;;;;;;;;26.60;99.90;;;;;;5031751;28;19960;-81
2022/05/23 09:31:40;;;;;;;;;;;27.00;99.90;;;;;;5011353;28;20008;-80
2022/05/23 09:34:25;;;;;;;;;;;28.00;99.90;;;;;;5028189;28;19963;-81
2022/05/23 09:36:51;;;;;;;;;;;30.10;99.90;;;;;;5015537;28;19924;-79
2022/05/23 09:39:21;;;;;;;;;;;31.90;99.90;;;;;;5028291;28;20419;-79
2022/05/23 09:47:50;;;;;;;;;;;28.40;99.90;;;;;;5026783;28;19916;-81
2022/05/23 09:50:34;;;;;;;;;;;27.60;99.90;;;;;;5030064;28;19917;-80
2022/05/23 09:53:01;;;;;;;;;;;26.60;99.90;;;;;;5013395;28;19917;-81
2022/05/23 09:55:31;;;;;;;;;;;26.30;99.90;;;;;;5009675;28;20369;-81
2022/05/23 09:58:02;;;;;;;;;;;26.60;99.90;;;;;;5026585;28;20292;-80
2022/05/23 10:00:33;;;;;;;;;;;27.00;99.90;;;;;;5020156;28;19945;-79
2022/05/23 10:03:01;;;;;;;;;;;27.80;99.90;;;;;;5007990;28;19949;-79
2022/05/23 10:05:30;;;;;;;;;;;28.30;99.90;;;;;;5032440;28;19909;-81
2022/05/23 10:07:59;;;;;;;;;;;28.80;99.90;;;;;;5029145;28;19920;-79
2022/05/23 10:10:26;;;;;;;;;;;29.60;99.90;;;;;;5028723;28;20417;-80
2022/05/23 10:13:09;;;;;;;;;;;32.60;99.90;;;;;;5029796;28;19917;-79
2022/05/23 10:15:41;;;;;;;;;;;33.70;99.90;;;;;;5015791;28;20016;-79
2022/05/23 10:18:08;;;;;;;;;;;34.60;99.90;;;;;;5025946;28;19924;-79
2022/05/23 10:20:38;;;;;;;;;;;34.90;99.90;;;;;;5038456;28;20417;-80
2022/05/23 10:23:07;;;;;;;;;;;35.00;99.90;;;;;;5012207;28;19921;-79
2022/05/23 10:25:39;;;;;;;;;;;35.10;99.90;;;;;;5012468;28;19918;-79
2022/05/23 10:28:11;;;;;;;;;;;35.70;99.90;;;;;;5029587;28;20369;-79
2022/05/23 10:30:36;;;;;;;;;;;35.90;99.90;;;;;;5034170;28;19913;-79
2022/05/23 10:33:08;;;;;;;;;;;35.70;99.90;;;;;;5017131;28;19920;-79
2022/05/23 10:35:40;;;;;;;;;;;36.90;99.90;;;;;;5031131;28;19920;-79
2022/05/23 10:44:14;;;;;;;;;;;36.80;99.90;;;;;;5027590;28;19951;-79
2022/05/23 10:46:46;;;;;;;;;;;35.50;99.90;;;;;;5035410;28;19917;-79
2022/05/23 10:49:12;;;;;;;;;;;35.00;99.90;;;;;;5031169;28;19909;-79
2022/05/23 10:51:37;;;;;;;;;;;35.30;99.90;;;;;;5016328;28;19916;-79
2022/05/23 10:54:09;;;;;;;;;;;35.60;99.90;;;;;;5034831;28;19913;-79
2022/05/23 10:56:49;;;;;;;;;;;35.50;99.90;;;;;;5010131;28;19917;-77
2022/05/23 10:59:18;;;;;;;;;;;35.40;99.90;;;;;;5015928;28;19913;-80
2022/05/23 11:01:57;;;;;;;;;;;35.40;99.90;;;;;;5027853;28;19913;-79
2022/05/23 11:04:34;;;;;;;;;;;36.30;99.90;;;;;;5035067;28;20201;-79
2022/05/23 11:07:27;;;;;;;;;;;37.70;99.90;;;;;;5032363;28;19913;-79
2022/05/23 11:10:13;;;;;;;;;;;37.60;99.90;;;;;;5030266;28;19920;-78
2022/05/23 11:12:39;;;;;;;;;;;37.00;99.90;;;;;;5028917;28;19963;-79
2022/05/23 11:15:10;;;;;;;;;;;37.80;99.90;;;;;;5033112;28;19969;-79
2022/05/23 11:17:39;;;;;;;;;;;37.10;99.90;;;;;;5013856;28;19920;-78
2022/05/23 11:20:16;;;;;;;;;;;35.70;99.90;;;;;;5031591;28;20103;-78
2022/05/23 11:22:44;;;;;;;;;;;35.90;99.90;;;;;;5012511;28;19909;-78
2022/05/23 11:25:29;;;;;;;;;;;35.00;99.90;;;;;;5017074;28;19980;-78
2022/05/23 11:33:47;;;;;;;;;;;36.30;99.90;;;;;;5025973;28;19920;-78
2022/05/23 11:36:24;;;;;;;;;;;35.50;99.90;;;;;;5031110;28;19987;-79
2022/05/23 11:38:51;;;;;;;;;;;35.30;99.90;;;;;;5027567;28;19910;-79
2022/05/23 11:41:39;;;;;;;;;;;35.80;99.90;;;;;;5032437;28;19919;-79
2022/05/23 11:44:24;;;;;;;;;;;35.90;99.90;;;;;;5017808;28;20547;-79
2022/05/23 11:47:04;;;;;;;;;;;36.90;99.90;;;;;;5015323;28;19944;-78
2022/05/23 11:49:42;;;;;;;;;;;35.60;99.90;;;;;;5014954;28;19913;-78
2022/05/23 11:52:22;;;;;;;;;;;34.80;99.90;;;;;;5034907;28;19920;-79
2022/05/23 11:54:48;;;;;;;;;;;34.70;99.90;;;;;;5012027;28;20285;-79
2022/05/23 11:57:16;;;;;;;;;;;33.80;99.90;;;;;;5017306;28;19948;-79
2022/05/23 11:59:44;;;;;;;;;;;34.70;99.90;;;;;;5015828;28;19913;-78
2022/05/23 12:02:11;;;;;;;;;;;34.70;99.90;;;;;;5015450;28;19936;-78
2022/05/23 12:04:49;;;;;;;;;;;34.10;99.90;;;;;;5016360;28;19917;-78
2022/05/23 12:07:33;;;;;;;;;;;33.10;99.90;;;;;;5007198;28;19981;-80
2022/05/23 12:10:17;;;;;;;;;;;32.50;99.90;;;;;;5026591;28;19921;-78
2022/05/23 12:12:44;;;;;;;;;;;31.70;99.90;;;;;;5029939;28;20324;-80
2022/05/23 12:15:11;;;;;;;;;;;31.30;99.90;;;;;;5016607;28;20008;-80
2022/05/23 12:17:36;;;;;;;;;;;30.50;99.90;;;;;;5028810;28;19988;-80
2022/05/23 12:20:06;;;;;;;;;;;30.00;99.90;;;;;;5019041;28;19967;-80
2022/05/23 12:22:32;;;;;;;;;;;29.60;99.90;;;;;;5012470;28;19956;-80
2022/05/23 12:25:07;;;;;;;;;;;28.90;99.90;;;;;;5012743;28;19917;-80
2022/05/23 12:27:44;;;;;;;;;;;28.50;99.90;;;;;;5027578;28;19920;-81
2022/05/23 12:30:24;;;;;;;;;;;28.40;99.90;;;;;;5029299;28;20290;-80
2022/05/23 12:32:51;;;;;;;;;;;28.30;99.90;;;;;;5038914;28;19920;-80
2022/05/23 12:35:18;;;;;;;;;;;28.60;99.90;;;;;;5030068;28;19980;-80
2022/05/23 12:38:04;;;;;;;;;;;28.90;99.90;;;;;;5029688;28;20270;-80
2022/05/23 12:40:48;;;;;;;;;;;29.10;99.90;;;;;;5010653;28;19927;-80
2022/05/23 12:43:16;;;;;;;;;;;29.20;99.90;;;;;;5029835;28;19913;-79
2022/05/23 12:45:45;;;;;;;;;;;29.20;99.90;;;;;;5018112;28;19917;-80
2022/05/23 12:48:29;;;;;;;;;;;29.10;99.90;;;;;;5019160;28;19913;-80
2022/05/23 12:54:01;;;;;;;;;;;28.60;99.90;;;;;;5037437;28;19939;-80
2022/05/23 12:56:44;;;;;;;;;;;28.40;99.90;;;;;;5015252;28;19917;-81
2022/05/23 12:59:12;;;;;;;;;;;28.20;99.90;;;;;;5017148;28;19921;-80
2022/05/23 13:01:42;;;;;;;;;;;27.90;99.90;;;;;;5039741;28;19913;-80
2022/05/23 13:04:11;;;;;;;;;;;27.60;99.90;;;;;;5015962;28;19913;-80
2022/05/23 13:06:47;;;;;;;;;;;27.20;99.90;;;;;;5028148;28;19925;-80
2022/05/23 13:09:44;;;;;;;;;;;27.00;99.90;;;;;;5034909;28;19913;-80
2022/05/23 13:12:16;;;;;;;;;;;26.70;99.90;;;;;;4932142;28;19914;-80
2022/05/23 13:15:00;;;;;;;;;;;26.40;99.90;;;;;;5016206;28;19944;-80
2022/05/23 13:17:42;;;;;;;;;;;26.00;99.90;;;;;;5035111;28;19924;-80
2022/05/23 13:23:04;;;;;;;;;;;25.50;99.90;;;;;;5028645;28;20647;-80
2022/05/23 13:25:30;;;;;;;;;;;25.20;99.90;;;;;;5030147;28;20410;-79
2022/05/23 13:27:59;;;;;;;;;;;25.00;99.90;;;;;;5029596;28;20000;-80
2022/05/23 13:30:25;;;;;;;;;;;25.10;1.00;;;;;;5033008;28;20004;-80
2022/05/23 13:33:01;;;;;;;;;;;25.10;1.00;;;;;;5023487;28;19955;-80
2022/05/23 13:35:28;;;;;;;;;;;25.30;1.00;;;;;;5010741;28;19913;-80
2022/05/23 13:37:53;;;;;;;;;;;25.60;99.90;;;;;;5025453;28;19964;-80
2022/05/23 13:40:24;;;;;;;;;;;25.90;99.90;;;;;;5016434;28;19913;-80
2022/05/23 13:42:50;;;;;;;;;;;26.30;99.90;;;;;;5034568;28;19917;-80
2022/05/23 13:45:16;;;;;;;;;;;26.70;99.90;;;;;;5037136;28;19988;-80
2022/05/23 13:47:51;;;;;;;;;;;27.00;99.90;;;;;;5029836;28;19920;-80
2022/05/23 13:50:19;;;;;;;;;;;27.10;99.90;;;;;;5009319;28;19929;-80
2022/05/23 13:52:49;;;;;;;;;;;27.30;99.90;;;;;;5015151;28;19917;-79
2022/05/23 13:55:17;;;;;;;;;;;27.40;99.90;;;;;;5038225;28;19968;-79
2022/05/23 13:57:47;;;;;;;;;;;27.40;99.90;;;;;;5015031;28;19917;-79
2022/05/23 14:00:15;;;;;;;;;;;27.40;99.90;;;;;;5019095;28;19920;-79
2022/05/23 14:02:46;;;;;;;;;;;27.50;99.90;;;;;;5014196;28;19913;-80
2022/05/23 14:05:12;;;;;;;;;;;27.60;99.90;;;;;;5012929;28;19913;-80
2022/05/23 14:07:39;;;;;;;;;;;27.90;99.90;;;;;;5033235;28;20385;-80
2022/05/23 14:10:07;;;;;;;;;;;28.10;99.90;;;;;;5031294;28;19913;-80
2022/05/23 14:12:34;;;;;;;;;;;28.20;99.90;;;;;;5015850;28;19959;-79
2022/05/23 14:15:02;;;;;;;;;;;28.20;99.90;;;;;;5017525;28;19913;-80
2022/05/23 14:17:30;;;;;;;;;;;28.20;99.90;;;;;;5026609;28;19932;-79
2022/05/23 14:20:10;;;;;;;;;;;28.10;99.90;;;;;;5035724;28;19924;-80
2022/05/23 14:22:36;;;;;;;;;;;28.00;99.90;;;;;;5013051;28;19980;-80
2022/05/23 14:25:16;;;;;;;;;;;27.70;99.90;;;;;;5013787;28;19925;-80
2022/05/23 14:27:50;;;;;;;;;;;27.60;99.90;;;;;;5033395;28;20035;-80
2022/05/23 14:30:24;;;;;;;;;;;27.30;99.90;;;;;;5032415;28;19914;-80
2022/05/23 14:32:54;;;;;;;;;;;27.30;99.90;;;;;;5015415;28;20000;-79
2022/05/23 14:35:25;;;;;;;;;;;27.40;99.90;;;;;;5030900;28;19917;-78
2022/05/23 14:37:52;;;;;;;;;;;27.30;99.90;;;;;;5016342;28;19917;-80
2022/05/23 14:40:37;;;;;;;;;;;27.60;99.90;;;;;;5024767;28;20028;-80
2022/05/23 14:43:08;;;;;;;;;;;27.70;99.90;;;;;;5030825;28;19913;-80
2022/05/23 14:45:34;;;;;;;;;;;27.60;99.90;;;;;;5009571;28;19913;-80
2022/05/23 14:48:11;;;;;;;;;;;27.70;99.90;;;;;;5032425;28;19917;-80
2022/05/23 14:50:42;;;;;;;;;;;28.00;99.90;;;;;;5029034;28;19914;-80
2022/05/23 14:55:54;;;;;;;;;;;28.40;99.90;;;;;;5032635;28;19967;-80
2022/05/23 15:01:16;;;;;;;;;;;28.40;99.90;;;;;;5030340;28;19971;-80
2022/05/23 15:03:43;;;;;;;;;;;28.00;99.90;;;;;;5013451;28;19976;-80
2022/05/23 15:06:09;;;;;;;;;;;27.90;99.90;;;;;;5031470;28;19921;-79
2022/05/23 15:08:35;;;;;;;;;;;27.60;99.90;;;;;;5028503;28;19913;-80
2022/05/23 15:11:01;;;;;;;;;;;27.20;99.90;;;;;;5032829;28;19920;-80
2022/05/23 15:13:28;;;;;;;;;;;27.00;99.90;;;;;;5016822;28;19914;-80
2022/05/23 15:16:02;;;;;;;;;;;26.70;99.90;;;;;;5008778;28;19913;-80
2022/05/23 15:18:28;;;;;;;;;;;26.50;99.90;;;;;;5031922;28;19925;-80
2022/05/23 15:20:54;;;;;;;;;;;26.20;99.90;;;;;;5012499;28;19972;-80
2022/05/23 15:23:19;;;;;;;;;;;25.90;99.90;;;;;;5026720;28;19913;-80
2022/05/23 15:25:45;;;;;;;;;;;25.50;99.90;;;;;;5031506;28;20285;-80
2022/05/23 15:28:11;;;;;;;;;;;25.30;99.90;;;;;;5032188;28;20251;-80
2022/05/23 15:30:36;;;;;;;;;;;25.10;99.90;;;;;;5019911;28;20417;-80
2022/05/23 15:33:02;;;;;;;;;;;24.90;1.00;;;;;;5024323;28;19917;-80
2022/05/23 15:35:27;;;;;;;;;;;24.70;1.00;;;;;;5032736;28;19921;-80